21kousinmaru — JD2168 — position and weather

sailwx.info

Track history (hours):
 
Tides and Currents Weather Stations Pressure Air Temp Water Temp Dewpoint Dewpoint Depression Visibility Wind Speed Wind Dir Waves Ship Positions

21kousinmaru

Last reported at 2015-Apr-21 06:30 UTC. Time now 2015-Apr-21 19:03 UTC.
Position N 35°03' E 139°31'.

Length 68 m; draft 4.5 m.

MMSI: 431501835.

Date/timePositionNaut miles runAvg speedWind from/ knotsBaromVisibWave heightAir tempDewpointWater temp
2015-Apr-21 06:30N 35°03' E 139°31'1212.4
2015-Apr-21 05:33N 35°09' E 139°44'1110.8
2015-Apr-21 04:33N 35°20' E 139°43'1211.8
2015-Apr-21 03:33N 35°29' E 139°51'10 9.6
2015-Apr-21 02:33N 35°31' E 140°02'0 0.0
2015-Apr-21 01:31N 35°31' E 140°02'0 0.0
2015-Apr-21 00:33N 35°31' E 140°02'0 0.0
2015-Apr-20 23:33N 35°31' E 140°02'6 5.9
2015-Apr-20 22:33N 35°31' E 139°55'4 3.6
2015-Apr-20 21:31N 35°31' E 139°51'0 0.0
2015-Apr-20 20:33N 35°31' E 139°51'0 0.0
2015-Apr-20 19:32N 35°31' E 139°51'0 0.0
2015-Apr-20 18:32N 35°31' E 139°51'0 0.0
2015-Apr-20 17:33N 35°31' E 139°51'0 0.0
2015-Apr-20 16:33N 35°31' E 139°51'0 0.0
2015-Apr-20 15:32N 35°31' E 139°51'0 0.0
2015-Apr-20 14:33N 35°31' E 139°51'0 0.0
2015-Apr-20 13:33N 35°31' E 139°51'1 1.2
2015-Apr-20 12:33N 35°30' E 139°49'3 2.7
2015-Apr-20 11:33N 35°31' E 139°46'0 0.0
2015-Apr-20 10:34N 35°31' E 139°46'0 0.0
2015-Apr-20 09:33N 35°31' E 139°46'0 0.0
2015-Apr-20 08:33N 35°31' E 139°46'0 0.0
2015-Apr-20 07:33N 35°31' E 139°46'4 3.8
2015-Apr-20 06:33N 35°30' E 139°51'0 0.0
2015-Apr-20 05:33N 35°30' E 139°51'0 0.0
2015-Apr-20 04:33N 35°30' E 139°51'0 0.0
2015-Apr-20 03:31N 35°30' E 139°51'0 0.0
2015-Apr-20 02:33N 35°30' E 139°51'0 0.0
2015-Apr-20 01:33N 35°30' E 139°51'0 0.0
2015-Apr-20 00:33N 35°30' E 139°51'0 0.0
2015-Apr-19 23:33N 35°30' E 139°51'0 0.0
2015-Apr-19 22:32N 35°30' E 139°50'0 0.1
2015-Apr-19 21:33N 35°30' E 139°51'0 0.0
2015-Apr-19 20:33N 35°30' E 139°51'0 0.0
2015-Apr-19 19:34N 35°30' E 139°51'0 0.0
2015-Apr-19 18:33N 35°30' E 139°51'0 0.0
2015-Apr-19 17:33N 35°30' E 139°51'0 0.0
2015-Apr-19 16:34N 35°30' E 139°50'0 0.0
2015-Apr-19 15:33N 35°30' E 139°50'0 0.0
2015-Apr-19 14:33N 35°30' E 139°50'0 0.0
2015-Apr-19 13:33N 35°30' E 139°50'0 0.0
2015-Apr-19 12:34N 35°30' E 139°50'0 0.0
2015-Apr-19 11:33N 35°30' E 139°50'0 0.0
2015-Apr-19 10:33N 35°30' E 139°50'0 0.0
2015-Apr-19 09:34N 35°30' E 139°50'0 0.0
2015-Apr-19 08:33N 35°30' E 139°50'0 0.0
2015-Apr-19 07:34N 35°30' E 139°50'6 6.5
2015-Apr-19 06:33N 35°31' E 139°58'3 3.2
2015-Apr-19 05:33N 35°31' E 140°02'0 0.0
2015-Apr-19 04:33N 35°31' E 140°02'0 0.0
2015-Apr-19 03:33N 35°31' E 140°02'0 0.0
2015-Apr-19 02:31N 35°31' E 140°02'1 0.8
2015-Apr-19 01:33N 35°31' E 140°02'1 0.5
2015-Apr-19 00:31N 35°32' E 140°01'7 7.7
2015-Apr-18 23:33N 35°37' E 139°55'0 0.0
2015-Apr-18 22:33N 35°37' E 139°55'0 0.0
2015-Apr-18 21:33N 35°37' E 139°55'0 0.0
2015-Apr-18 20:33N 35°37' E 139°55'0 0.0
2015-Apr-18 19:33N 35°37' E 139°55'0 0.0
2015-Apr-18 18:33N 35°37' E 139°55'0 0.0
2015-Apr-18 17:32N 35°37' E 139°55'0 0.0
2015-Apr-18 16:33N 35°37' E 139°55'0 0.0
2015-Apr-18 15:33N 35°37' E 139°55'0 0.0
2015-Apr-18 14:33N 35°37' E 139°55'0 0.0
2015-Apr-18 13:33N 35°37' E 139°55'0 0.0
2015-Apr-18 12:33N 35°37' E 139°55'0 0.0
2015-Apr-18 11:33N 35°37' E 139°55'0 0.0
2015-Apr-18 10:33N 35°37' E 139°55'0 0.0
2015-Apr-18 09:32N 35°37' E 139°55'0 0.0
2015-Apr-18 08:32N 35°37' E 139°55'0 0.0
2015-Apr-18 07:33N 35°37' E 139°55'0 0.0
2015-Apr-18 06:33N 35°37' E 139°55'0 0.0
2015-Apr-18 05:33N 35°37' E 139°55'0 0.0
2015-Apr-18 04:33N 35°37' E 139°55'0 0.0
2015-Apr-18 03:33N 35°37' E 139°55'0 0.0
2015-Apr-18 02:34N 35°37' E 139°55'0 0.1
2015-Apr-18 01:33N 35°37' E 139°55'1010.2
2015-Apr-18 00:33N 35°27' E 139°50'1111.0
2015-Apr-17 23:33N 35°17' E 139°46'1211.8
2015-Apr-17 22:33N 35°05' E 139°45'12 0.3
2015-Apr-16 08:30N 35°02' E 139°30'1010.3
2015-Apr-16 07:33N 35°07' E 139°41'1010.0
2015-Apr-16 06:33N 35°16' E 139°45'11 9.7
2015-Apr-16 05:27N 35°27' E 139°47'5 5.4
2015-Apr-16 04:33N 35°31' E 139°51'0 0.0
2015-Apr-16 03:34N 35°31' E 139°51'9 9.5
2015-Apr-16 02:33N 35°31' E 140°02'0 0.0
2015-Apr-16 01:33N 35°31' E 140°02'0 0.0
2015-Apr-16 00:33N 35°31' E 140°02'0 0.0
2015-Apr-15 23:33N 35°31' E 140°02'5 5.0
2015-Apr-15 22:33N 35°29' E 139°56'2 1.5
2015-Apr-15 21:33N 35°29' E 139°55'0 0.0
2015-Apr-15 20:33N 35°29' E 139°55'0 0.0
2015-Apr-15 19:33N 35°29' E 139°55'0 0.1
2015-Apr-15 18:33N 35°29' E 139°55'0 0.0
2015-Apr-15 17:33N 35°29' E 139°55'0 0.0
2015-Apr-15 16:33N 35°29' E 139°55'0 0.0
2015-Apr-15 15:32N 35°29' E 139°55'0 0.0
2015-Apr-15 14:33N 35°29' E 139°55'0 0.0
2015-Apr-15 13:33N 35°29' E 139°55'0 0.0
2015-Apr-15 12:33N 35°29' E 139°55'0 0.0
2015-Apr-15 11:33N 35°29' E 139°55'0 0.0
2015-Apr-15 10:28N 35°29' E 139°55'0 0.1
2015-Apr-15 09:33N 35°29' E 139°55'0 0.0
2015-Apr-15 08:33N 35°29' E 139°55'0 0.0
2015-Apr-15 07:33N 35°29' E 139°55'0 0.0
2015-Apr-15 06:26N 35°29' E 139°55'0 0.0
2015-Apr-15 05:33N 35°29' E 139°55'0 0.0
2015-Apr-15 04:33N 35°29' E 139°55'0 0.0
2015-Apr-15 03:34N 35°29' E 139°55'7 7.1
2015-Apr-15 02:33N 35°31' E 139°46'0 0.0
2015-Apr-15 01:33N 35°31' E 139°46'0 0.0
2015-Apr-15 00:33N 35°31' E 139°46'3 2.8
2015-Apr-14 23:32N 35°29' E 139°49'0 0.1
2015-Apr-14 22:27N 35°29' E 139°49'0 0.1
2015-Apr-14 21:33N 35°29' E 139°49'0 0.0
2015-Apr-14 20:34N 35°29' E 139°49'0 0.0
2015-Apr-14 19:33N 35°29' E 139°49'0 0.0
2015-Apr-14 18:33N 35°29' E 139°49'0 0.0
2015-Apr-14 17:33N 35°29' E 139°49'0 0.0
2015-Apr-14 16:34N 35°29' E 139°49'0 0.0
2015-Apr-14 15:33N 35°29' E 139°49'0 0.0
2015-Apr-14 14:34N 35°29' E 139°49'1111.4
2015-Apr-14 13:34N 35°17' E 139°45'1111.3
2015-Apr-14 12:34N 35°06' E 139°44'1211.1
2015-Apr-14 11:31N 34°58' E 139°34'  
2015-Apr-12 07:09N 34°04' E 135°00'1013.1
2015-Apr-12 06:22N 34°14' E 134°59'1011.4
2015-Apr-12 05:30N 34°23' E 135°03'1212.8
2015-Apr-12 04:33N 34°30' E 135°16'9 1.8
2015-Apr-11 23:29N 34°33' E 135°26'1010.6
2015-Apr-11 22:33N 34°31' E 135°14'1211.7
2015-Apr-11 21:31N 34°27' E 135°00'  
Track history (hours):
 
Tides and Currents Weather Stations Pressure Air Temp Water Temp Dewpoint Dewpoint Depression Visibility Wind Speed Wind Dir Waves Ship Positions

21kousinmaru

Last reported at 2015-Apr-21 06:30 UTC. Time now 2015-Apr-21 19:03 UTC.
Position N 35°03' E 139°31'.

Length 68 m; draft 4.5 m.

MMSI: 431501835.

Date/timePositionNaut miles runAvg speedWind from/ knotsBaromVisibWave heightAir tempDewpointWater temp
2015-Apr-21 06:30N 35°03' E 139°31'1212.4
2015-Apr-21 05:33N 35°09' E 139°44'1110.8
2015-Apr-21 04:33N 35°20' E 139°43'1211.8
2015-Apr-21 03:33N 35°29' E 139°51'10 9.6
2015-Apr-21 02:33N 35°31' E 140°02'0 0.0
2015-Apr-21 01:31N 35°31' E 140°02'0 0.0
2015-Apr-21 00:33N 35°31' E 140°02'0 0.0
2015-Apr-20 23:33N 35°31' E 140°02'6 5.9
2015-Apr-20 22:33N 35°31' E 139°55'4 3.6
2015-Apr-20 21:31N 35°31' E 139°51'0 0.0
2015-Apr-20 20:33N 35°31' E 139°51'0 0.0
2015-Apr-20 19:32N 35°31' E 139°51'0 0.0
2015-Apr-20 18:32N 35°31' E 139°51'0 0.0
2015-Apr-20 17:33N 35°31' E 139°51'0 0.0
2015-Apr-20 16:33N 35°31' E 139°51'0 0.0
2015-Apr-20 15:32N 35°31' E 139°51'0 0.0
2015-Apr-20 14:33N 35°31' E 139°51'0 0.0
2015-Apr-20 13:33N 35°31' E 139°51'1 1.2
2015-Apr-20 12:33N 35°30' E 139°49'3 2.7
2015-Apr-20 11:33N 35°31' E 139°46'0 0.0
2015-Apr-20 10:34N 35°31' E 139°46'0 0.0
2015-Apr-20 09:33N 35°31' E 139°46'0 0.0
2015-Apr-20 08:33N 35°31' E 139°46'0 0.0
2015-Apr-20 07:33N 35°31' E 139°46'4 3.8
2015-Apr-20 06:33N 35°30' E 139°51'0 0.0
2015-Apr-20 05:33N 35°30' E 139°51'0 0.0
2015-Apr-20 04:33N 35°30' E 139°51'0 0.0
2015-Apr-20 03:31N 35°30' E 139°51'0 0.0
2015-Apr-20 02:33N 35°30' E 139°51'0 0.0
2015-Apr-20 01:33N 35°30' E 139°51'0 0.0
2015-Apr-20 00:33N 35°30' E 139°51'0 0.0
2015-Apr-19 23:33N 35°30' E 139°51'0 0.0
2015-Apr-19 22:32N 35°30' E 139°50'0 0.1
2015-Apr-19 21:33N 35°30' E 139°51'0 0.0
2015-Apr-19 20:33N 35°30' E 139°51'0 0.0
2015-Apr-19 19:34N 35°30' E 139°51'0 0.0
2015-Apr-19 18:33N 35°30' E 139°51'0 0.0
2015-Apr-19 17:33N 35°30' E 139°51'0 0.0
2015-Apr-19 16:34N 35°30' E 139°50'0 0.0
2015-Apr-19 15:33N 35°30' E 139°50'0 0.0
2015-Apr-19 14:33N 35°30' E 139°50'0 0.0
2015-Apr-19 13:33N 35°30' E 139°50'0 0.0
2015-Apr-19 12:34N 35°30' E 139°50'0 0.0
2015-Apr-19 11:33N 35°30' E 139°50'0 0.0
2015-Apr-19 10:33N 35°30' E 139°50'0 0.0
2015-Apr-19 09:34N 35°30' E 139°50'0 0.0
2015-Apr-19 08:33N 35°30' E 139°50'0 0.0
2015-Apr-19 07:34N 35°30' E 139°50'6 6.5
2015-Apr-19 06:33N 35°31' E 139°58'3 3.2
2015-Apr-19 05:33N 35°31' E 140°02'0 0.0
2015-Apr-19 04:33N 35°31' E 140°02'0 0.0
2015-Apr-19 03:33N 35°31' E 140°02'0 0.0
2015-Apr-19 02:31N 35°31' E 140°02'1 0.8
2015-Apr-19 01:33N 35°31' E 140°02'1 0.5
2015-Apr-19 00:31N 35°32' E 140°01'7 7.7
2015-Apr-18 23:33N 35°37' E 139°55'0 0.0
2015-Apr-18 22:33N 35°37' E 139°55'0 0.0
2015-Apr-18 21:33N 35°37' E 139°55'0 0.0
2015-Apr-18 20:33N 35°37' E 139°55'0 0.0
2015-Apr-18 19:33N 35°37' E 139°55'0 0.0
2015-Apr-18 18:33N 35°37' E 139°55'0 0.0
2015-Apr-18 17:32N 35°37' E 139°55'0 0.0
2015-Apr-18 16:33N 35°37' E 139°55'0 0.0
2015-Apr-18 15:33N 35°37' E 139°55'0 0.0
2015-Apr-18 14:33N 35°37' E 139°55'0 0.0
2015-Apr-18 13:33N 35°37' E 139°55'0 0.0
2015-Apr-18 12:33N 35°37' E 139°55'0 0.0
2015-Apr-18 11:33N 35°37' E 139°55'0 0.0
2015-Apr-18 10:33N 35°37' E 139°55'0 0.0
2015-Apr-18 09:32N 35°37' E 139°55'0 0.0
2015-Apr-18 08:32N 35°37' E 139°55'0 0.0
2015-Apr-18 07:33N 35°37' E 139°55'0 0.0
2015-Apr-18 06:33N 35°37' E 139°55'0 0.0
2015-Apr-18 05:33N 35°37' E 139°55'0 0.0
2015-Apr-18 04:33N 35°37' E 139°55'0 0.0
2015-Apr-18 03:33N 35°37' E 139°55'0 0.0
2015-Apr-18 02:34N 35°37' E 139°55'0 0.1
2015-Apr-18 01:33N 35°37' E 139°55'1010.2
2015-Apr-18 00:33N 35°27' E 139°50'1111.0
2015-Apr-17 23:33N 35°17' E 139°46'1211.8
2015-Apr-17 22:33N 35°05' E 139°45'12 0.3
2015-Apr-16 08:30N 35°02' E 139°30'1010.3
2015-Apr-16 07:33N 35°07' E 139°41'1010.0
2015-Apr-16 06:33N 35°16' E 139°45'11 9.7
2015-Apr-16 05:27N 35°27' E 139°47'5 5.4
2015-Apr-16 04:33N 35°31' E 139°51'0 0.0
2015-Apr-16 03:34N 35°31' E 139°51'9 9.5
2015-Apr-16 02:33N 35°31' E 140°02'0 0.0
2015-Apr-16 01:33N 35°31' E 140°02'0 0.0
2015-Apr-16 00:33N 35°31' E 140°02'0 0.0
2015-Apr-15 23:33N 35°31' E 140°02'5 5.0
2015-Apr-15 22:33N 35°29' E 139°56'2 1.5
2015-Apr-15 21:33N 35°29' E 139°55'0 0.0
2015-Apr-15 20:33N 35°29' E 139°55'0 0.0
2015-Apr-15 19:33N 35°29' E 139°55'0 0.1
2015-Apr-15 18:33N 35°29' E 139°55'0 0.0
2015-Apr-15 17:33N 35°29' E 139°55'0 0.0
2015-Apr-15 16:33N 35°29' E 139°55'0 0.0
2015-Apr-15 15:32N 35°29' E 139°55'0 0.0
2015-Apr-15 14:33N 35°29' E 139°55'0 0.0
2015-Apr-15 13:33N 35°29' E 139°55'0 0.0
2015-Apr-15 12:33N 35°29' E 139°55'0 0.0
2015-Apr-15 11:33N 35°29' E 139°55'0 0.0
2015-Apr-15 10:28N 35°29' E 139°55'0 0.1
2015-Apr-15 09:33N 35°29' E 139°55'0 0.0
2015-Apr-15 08:33N 35°29' E 139°55'0 0.0
2015-Apr-15 07:33N 35°29' E 139°55'0 0.0
2015-Apr-15 06:26N 35°29' E 139°55'0 0.0
2015-Apr-15 05:33N 35°29' E 139°55'0 0.0
2015-Apr-15 04:33N 35°29' E 139°55'0 0.0
2015-Apr-15 03:34N 35°29' E 139°55'7 7.1
2015-Apr-15 02:33N 35°31' E 139°46'0 0.0
2015-Apr-15 01:33N 35°31' E 139°46'0 0.0
2015-Apr-15 00:33N 35°31' E 139°46'3 2.8
2015-Apr-14 23:32N 35°29' E 139°49'0 0.1
2015-Apr-14 22:27N 35°29' E 139°49'0 0.1
2015-Apr-14 21:33N 35°29' E 139°49'0 0.0
2015-Apr-14 20:34N 35°29' E 139°49'0 0.0
2015-Apr-14 19:33N 35°29' E 139°49'0 0.0
2015-Apr-14 18:33N 35°29' E 139°49'0 0.0
2015-Apr-14 17:33N 35°29' E 139°49'0 0.0
2015-Apr-14 16:34N 35°29' E 139°49'0 0.0
2015-Apr-14 15:33N 35°29' E 139°49'0 0.0
2015-Apr-14 14:34N 35°29' E 139°49'1111.4
2015-Apr-14 13:34N 35°17' E 139°45'1111.3
2015-Apr-14 12:34N 35°06' E 139°44'1211.1
2015-Apr-14 11:31N 34°58' E 139°34'  
2015-Apr-12 07:09N 34°04' E 135°00'1013.1
2015-Apr-12 06:22N 34°14' E 134°59'1011.4
2015-Apr-12 05:30N 34°23' E 135°03'1212.8
2015-Apr-12 04:33N 34°30' E 135°16'9 1.8
2015-Apr-11 23:29N 34°33' E 135°26'1010.6
2015-Apr-11 22:33N 34°31' E 135°14'1211.7
2015-Apr-11 21:31N 34°27' E 135°00'  

Dump ship's entire track history